Time;durP1;ratioP1;P1;durP2;ratioP2;P2;SDS_P1;SDS_P2;PMS_P1;PMS_P2;Temp;Humidity;BMP_temperature;BMP_pressure;BME280_temperature;BME280_humidity;BME280_pressure;Samples;Min_cycle;Max_cycle;Signal;HPM_P1;HPM_P2
2023/01/19 00:01:54;;;;;;;7.90;6.40;;;;;;;1.90;63.85;99072.19;20921896;28;20528;-86
2023/01/19 00:11:56;;;;;;;9.43;7.30;;;;;;;1.99;64.12;99070.47;20939881;28;20513;-87
2023/01/19 00:21:58;;;;;;;9.60;5.87;;;;;;;1.60;65.15;99066.94;20952595;28;20199;-87
2023/01/19 00:32:02;;;;;;;7.63;6.60;;;;;;;1.96;64.86;99076.59;20886269;28;20220;-85
2023/01/19 00:52:26;;;;;;;8.43;6.37;;;;;;;1.87;64.86;99061.75;20903854;28;20227;-87
2023/01/19 01:02:28;;;;;;;9.07;6.30;;;;;;;2.07;65.11;99082.84;20877395;28;20217;-88
2023/01/19 01:12:31;;;;;;;5.93;5.33;;;;;;;2.01;63.88;99079.28;20882215;28;20261;-88
2023/01/19 01:22:33;;;;;;;9.57;7.23;;;;;;;1.77;65.17;99076.44;20920093;28;20222;-88
2023/01/19 01:32:35;;;;;;;6.60;5.73;;;;;;;2.60;63.13;99083.72;20940953;28;20245;-88
2023/01/19 01:42:39;;;;;;;7.33;6.43;;;;;;;2.37;64.32;99087.28;20899994;28;20702;-88
2023/01/19 01:53:05;;;;;;;11.13;6.53;;;;;;;2.09;65.55;99103.56;20942969;28;20246;-87
2023/01/19 02:03:09;;;;;;;8.63;6.37;;;;;;;2.24;65.40;99085.19;20920832;28;20282;-89
2023/01/19 02:13:18;;;;;;;7.03;6.33;;;;;;;2.29;64.75;99082.38;20967004;28;20219;-88
2023/01/19 02:23:36;;;;;;;8.63;6.67;;;;;;;2.07;65.36;99089.22;20897802;28;20254;-87
2023/01/19 02:33:39;;;;;;;8.83;6.60;;;;;;;2.35;63.84;99084.81;20916094;28;20219;-87
2023/01/19 02:43:41;;;;;;;7.57;6.43;;;;;;;2.33;65.09;99075.13;20938480;28;20196;-87
2023/01/19 02:53:52;;;;;;;7.83;6.27;;;;;;;2.67;63.08;99061.19;20949400;28;20261;-88
2023/01/19 03:04:12;;;;;;;10.43;6.30;;;;;;;2.35;64.12;99056.31;20947796;28;20293;-88
2023/01/19 03:14:20;;;;;;;7.90;6.30;;;;;;;2.31;64.15;99061.59;20877662;28;20246;-88
2023/01/19 03:24:24;;;;;;;6.53;4.47;;;;;;;1.70;66.43;99061.31;20975438;28;20196;-88
2023/01/19 03:34:27;;;;;;;9.23;5.70;;;;;;;2.13;64.28;99051.28;20908042;28;20277;-88
2023/01/19 03:44:31;;;;;;;5.90;5.30;;;;;;;2.33;64.01;99055.78;20988221;28;20196;-87
2023/01/19 03:54:33;;;;;;;8.93;5.00;;;;;;;1.88;64.88;99068.91;20941914;28;20219;-87
2023/01/19 04:04:35;;;;;;;6.73;5.30;;;;;;;1.94;64.96;99058.63;20962672;28;20219;-89
2023/01/19 04:14:39;;;;;;;6.00;4.50;;;;;;;1.86;65.44;99068.38;20931269;28;20220;-88
2023/01/19 04:24:41;;;;;;;7.07;4.87;;;;;;;2.02;65.90;99064.34;20977352;28;20244;-88
2023/01/19 04:34:43;;;;;;;7.67;5.37;;;;;;;1.91;66.31;99067.50;20978202;28;20227;-88
2023/01/19 04:44:45;;;;;;;6.93;5.07;;;;;;;2.25;66.74;99050.88;20940111;28;20196;-87
2023/01/19 04:54:47;;;;;;;8.00;5.03;;;;;;;2.25;68.81;99056.41;20918872;28;20219;-88
2023/01/19 05:04:50;;;;;;;5.90;4.90;;;;;;;1.47;73.29;99056.53;20943818;28;20540;-87
2023/01/19 05:14:52;;;;;;;6.33;5.37;;;;;;;0.94;76.57;99050.75;20983029;28;20241;-84
2023/01/19 05:24:55;;;;;;;7.33;5.10;;;;;;;1.29;74.03;99056.06;20909574;28;20200;-88
2023/01/19 05:34:57;;;;;;;6.43;5.40;;;;;;;1.66;73.70;99065.75;20945032;28;20219;-87
2023/01/19 05:44:59;;;;;;;6.23;4.90;;;;;;;1.39;74.60;99072.56;20933689;28;20200;-87
2023/01/19 05:55:01;;;;;;;5.67;5.07;;;;;;;1.86;73.29;99078.63;20929506;28;20208;-89
2023/01/19 06:05:04;;;;;;;6.07;5.10;;;;;;;1.75;73.58;99081.44;20939731;28;20220;-86
2023/01/19 06:15:06;;;;;;;6.73;5.03;;;;;;;1.40;74.56;99095.50;20914280;28;20274;-83
2023/01/19 06:25:09;;;;;;;7.43;4.47;;;;;;;1.45;74.85;99088.03;20913237;28;20229;-85
2023/01/19 06:35:12;;;;;;;5.37;4.00;;;;;;;1.45;75.68;99104.59;20910586;28;20216;-85
2023/01/19 06:45:15;;;;;;;3.73;3.43;;;;;;;1.50;75.17;99117.53;20938337;28;20199;-85
2023/01/19 06:55:17;;;;;;;3.77;3.30;;;;;;;1.40;75.49;99129.47;20932868;28;20693;-85
2023/01/19 07:05:21;;;;;;;3.80;2.93;;;;;;;1.64;73.44;99139.84;20940167;28;20219;-84
2023/01/19 07:15:23;;;;;;;3.23;2.87;;;;;;;2.04;73.10;99169.16;20967786;28;20523;-83
2023/01/19 07:25:25;;;;;;;2.93;2.60;;;;;;;1.29;75.86;99172.09;20932804;28;20469;-83
2023/01/19 07:35:28;;;;;;;2.90;2.37;;;;;;;1.93;73.67;99182.22;20950433;28;20285;-84
2023/01/19 07:45:30;;;;;;;2.40;2.20;;;;;;;1.71;74.19;99206.69;20932809;28;20647;-84
2023/01/19 07:55:32;;;;;;;4.97;3.23;;;;;;;2.22;73.44;99222.97;20935256;28;20216;-84
2023/01/19 08:05:35;;;;;;;5.60;4.27;;;;;;;2.14;73.60;99228.00;20951480;28;20216;-86
2023/01/19 08:15:38;;;;;;;8.10;5.33;;;;;;;1.99;72.40;99258.53;20894500;28;20255;-85
2023/01/19 08:25:43;;;;;;;10.77;6.63;;;;;;;2.08;73.73;99261.50;20953178;28;20184;-89
2023/01/19 08:35:51;;;;;;;9.20;7.90;;;;;;;2.10;73.72;99271.19;20904605;28;20592;-87
2023/01/19 08:45:55;;;;;;;8.53;6.70;;;;;;;2.09;73.32;99288.88;20929428;28;20215;-87
2023/01/19 08:56:01;;;;;;;8.70;6.27;;;;;;;2.61;71.48;99295.75;20921520;28;20220;-87
2023/01/19 09:06:07;;;;;;;12.33;7.97;;;;;;;2.25;73.15;99317.31;20905394;28;20400;-87
2023/01/19 09:16:11;;;;;;;11.27;9.03;;;;;;;2.52;72.84;99327.94;20941371;28;20219;-88
2023/01/19 09:26:13;;;;;;;12.07;9.23;;;;;;;2.53;71.58;99351.69;20906189;28;20254;-88
2023/01/19 09:36:16;;;;;;;13.50;10.63;;;;;;;2.31;72.46;99373.41;20886769;28;20220;-86
2023/01/19 09:46:23;;;;;;;14.67;11.53;;;;;;;2.62;72.09;99372.16;20901466;28;20582;-87
2023/01/19 09:56:27;;;;;;;21.07;13.23;;;;;;;2.92;71.01;99392.44;20938261;28;20624;-87
2023/01/19 10:06:29;;;;;;;21.47;13.40;;;;;;;2.86;72.68;99409.09;20903457;28;20495;-85
2023/01/19 10:16:51;;;;;;;15.90;12.20;;;;;;;2.96;70.40;99415.66;20930207;28;20215;-85
2023/01/19 10:26:55;;;;;;;18.27;14.03;;;;;;;2.22;73.75;99424.94;20921477;28;20195;-85
2023/01/19 10:37:03;;;;;;;16.47;13.60;;;;;;;3.02;71.30;99431.16;20917616;28;20278;-85
2023/01/19 10:47:15;;;;;;;20.67;14.03;;;;;;;2.71;72.26;99438.81;20936320;28;20195;-85
2023/01/19 10:57:25;;;;;;;21.77;16.13;;;;;;;2.76;72.96;99447.09;20920116;28;20199;-86
2023/01/19 11:07:32;;;;;;;25.00;16.43;;;;;;;2.72;72.33;99449.59;20953193;28;20232;-86
2023/01/19 11:17:34;;;;;;;25.07;17.33;;;;;;;2.64;73.08;99452.16;20931984;28;20241;-85
2023/01/19 11:27:36;;;;;;;24.27;17.43;;;;;;;2.90;71.48;99456.44;20925746;28;20273;-86
2023/01/19 11:37:41;;;;;;;27.43;18.30;;;;;;;2.91;72.07;99451.72;20912532;28;20220;-86
2023/01/19 11:47:48;;;;;;;34.77;17.93;;;;;;;3.06;71.94;99457.13;20927767;28;20216;-87
2023/01/19 11:57:51;;;;;;;27.83;17.67;;;;;;;3.14;71.67;99467.63;20912026;28;20313;-86
2023/01/19 12:07:57;;;;;;;30.63;19.27;;;;;;;3.63;70.14;99463.94;20939832;28;20289;-86
2023/01/19 12:18:01;;;;;;;35.27;17.83;;;;;;;2.94;72.13;99467.75;20926820;28;20654;-87
2023/01/19 12:28:10;;;;;;;31.23;19.30;;;;;;;3.47;71.24;99466.84;20917525;28;20234;-88
2023/01/19 12:38:43;;;;;;;29.90;18.10;;;;;;;3.38;70.71;99473.31;20905342;28;20246;-87
2023/01/19 12:48:45;;;;;;;30.30;20.43;;;;;;;3.39;69.80;99473.03;20920785;28;20228;-88
2023/01/19 12:58:48;;;;;;;36.50;21.60;;;;;;;3.67;69.06;99470.56;20920161;28;20245;-87
2023/01/19 13:08:58;;;;;;;28.43;18.87;;;;;;;3.54;70.30;99478.44;20896529;28;20285;-87
2023/01/19 13:19:14;;;;;;;35.20;19.53;;;;;;;3.01;72.28;99479.34;20902883;28;20466;-88
2023/01/19 13:29:32;;;;;;;26.40;17.93;;;;;;;3.04;72.44;99485.16;20912715;28;20572;-88
2023/01/19 13:39:37;;;;;;;36.30;19.80;;;;;;;3.89;68.48;99490.34;20923707;28;20254;-87
2023/01/19 13:49:43;;;;;;;28.27;18.07;;;;;;;3.20;71.43;99488.63;20927964;28;20219;-88
2023/01/19 14:00:19;;;;;;;29.73;18.27;;;;;;;3.76;68.85;99496.56;20940163;28;20269;-86
2023/01/19 14:10:21;;;;;;;27.60;18.27;;;;;;;3.14;71.02;99517.50;20939209;28;20254;-86
2023/01/19 14:20:29;;;;;;;31.70;18.30;;;;;;;3.17;70.91;99522.47;20941361;28;20189;-87
2023/01/19 14:30:33;;;;;;;28.13;16.77;;;;;;;3.33;69.62;99526.81;20927544;28;20277;-87
2023/01/19 14:40:37;;;;;;;33.50;17.37;;;;;;;3.64;67.87;99540.47;20979116;27;20762;-86
2023/01/19 14:50:40;;;;;;;24.93;15.53;;;;;;;3.67;67.62;99548.22;20940547;28;20612;-87
2023/01/19 15:00:48;;;;;;;23.87;14.77;;;;;;;3.01;69.81;99563.28;20923552;28;20222;-85
2023/01/19 15:10:50;;;;;;;22.67;14.37;;;;;;;3.39;68.42;99558.94;20911663;28;20231;-86
2023/01/19 15:21:01;;;;;;;23.70;12.90;;;;;;;4.09;66.02;99572.56;20930878;28;20261;-88
2023/01/19 15:31:04;;;;;;;20.87;11.90;;;;;;;2.92;68.92;99580.78;20925257;28;20212;-87
2023/01/19 15:41:23;;;;;;;25.57;12.73;;;;;;;3.51;68.20;99581.59;20919745;28;20208;-85
2023/01/19 15:51:26;;;;;;;16.23;11.23;;;;;;;2.99;69.70;99581.31;20946726;28;20281;-88
2023/01/19 16:01:33;;;;;;;16.90;10.83;;;;;;;3.76;66.92;99593.63;20944392;28;20585;-87
2023/01/19 16:11:37;;;;;;;16.00;10.93;;;;;;;3.72;64.73;99596.16;20941235;28;20235;-85
2023/01/19 16:21:41;;;;;;;16.40;9.93;;;;;;;3.92;63.92;99607.13;20932050;28;20183;-86
2023/01/19 16:31:44;;;;;;;19.57;10.73;;;;;;;3.44;66.67;99628.22;20905102;28;20204;-87
2023/01/19 16:41:48;;;;;;;19.20;10.60;;;;;;;3.07;67.01;99625.03;20942978;28;20216;-87
2023/01/19 16:51:52;;;;;;;16.73;10.03;;;;;;;2.74;67.12;99641.22;20965820;28;20208;-86
2023/01/19 17:01:55;;;;;;;17.37;9.63;;;;;;;3.24;64.60;99656.00;20915578;28;20192;-88
2023/01/19 17:12:03;;;;;;;12.73;9.27;;;;;;;3.42;65.18;99673.97;20961353;28;20211;-91
2023/01/19 17:22:06;;;;;;;15.33;9.40;;;;;;;3.32;65.01;99677.59;20923192;28;20207;-91
2023/01/19 17:32:11;;;;;;;15.80;9.97;;;;;;;3.46;64.35;99670.34;20965704;28;20269;-88
2023/01/19 17:42:14;;;;;;;17.47;10.93;;;;;;;2.88;66.70;99685.78;20892930;28;20219;-87
2023/01/19 17:52:17;;;;;;;15.60;10.50;;;;;;;3.19;65.98;99687.31;20871557;28;20313;-90
2023/01/19 18:02:23;;;;;;;17.50;11.03;;;;;;;3.05;65.64;99685.47;20939442;28;20272;-92
2023/01/19 18:12:25;;;;;;;19.97;11.90;;;;;;;2.75;66.49;99689.13;20881512;28;20233;-86
2023/01/19 18:22:27;;;;;;;16.30;10.60;;;;;;;2.74;66.67;99696.59;20895209;28;20215;-90
2023/01/19 18:32:29;;;;;;;17.13;12.40;;;;;;;3.12;65.35;99691.53;20956708;28;20285;-86
2023/01/19 18:42:32;;;;;;;15.57;10.57;;;;;;;3.15;65.77;99702.03;20901798;28;20208;-88
2023/01/19 18:52:35;;;;;;;19.03;10.50;;;;;;;3.20;66.74;99710.31;20928421;28;20618;-86
2023/01/19 19:02:37;;;;;;;15.50;11.60;;;;;;;3.13;66.15;99720.88;20943610;28;20632;-86
2023/01/19 19:12:39;;;;;;;24.47;14.03;;;;;;;3.50;64.56;99715.81;20920513;28;20215;-87
2023/01/19 19:22:42;;;;;;;18.10;11.97;;;;;;;2.67;67.81;99723.72;20954265;28;20195;-94
2023/01/19 19:32:51;;;;;;;16.33;11.20;;;;;;;2.99;66.70;99726.19;20932157;28;20228;-93
2023/01/19 19:42:53;;;;;;;18.47;12.60;;;;;;;3.36;65.22;99731.38;20951524;28;20401;-86
2023/01/19 19:52:59;;;;;;;17.53;11.73;;;;;;;3.48;64.09;99737.44;20927378;28;20521;-88
2023/01/19 20:03:01;;;;;;;15.23;10.20;;;;;;;3.22;65.08;99753.28;20902571;28;20309;-86
2023/01/19 20:13:04;;;;;;;15.70;10.37;;;;;;;3.25;65.49;99754.66;20898624;28;20635;-87
2023/01/19 20:23:10;;;;;;;18.87;10.93;;;;;;;3.42;63.90;99763.53;20928401;28;20245;-88
2023/01/19 20:33:12;;;;;;;16.90;11.23;;;;;;;3.59;64.79;99761.22;20919717;28;20223;-88
2023/01/19 20:43:14;;;;;;;18.03;11.47;;;;;;;3.43;64.22;99776.28;20948976;28;20211;-89
2023/01/19 20:53:17;;;;;;;14.50;11.00;;;;;;;3.23;65.46;99787.38;20925242;28;20246;-89
2023/01/19 21:03:19;;;;;;;15.53;11.03;;;;;;;3.44;63.92;99799.28;20890357;28;20216;-88
2023/01/19 21:13:23;;;;;;;18.10;11.97;;;;;;;3.75;64.14;99813.88;20913657;28;20244;-86
2023/01/19 21:23:43;;;;;;;19.87;11.33;;;;;;;3.08;64.96;99828.94;20894740;28;20200;-88
2023/01/19 21:33:48;;;;;;;16.03;11.70;;;;;;;2.71;66.35;99835.59;20951324;28;20231;-87
2023/01/19 21:43:51;;;;;;;18.13;11.73;;;;;;;3.32;64.46;99860.53;20895365;28;20501;-89
2023/01/19 21:53:58;;;;;;;16.53;11.07;;;;;;;3.08;64.72;99862.19;20930024;28;20220;-88
2023/01/19 22:04:00;;;;;;;18.67;11.17;;;;;;;3.87;64.04;99875.41;20941680;28;20220;-88
2023/01/19 22:14:03;;;;;;;18.17;11.60;;;;;;;3.77;62.97;99889.31;20980290;28;20535;-86
2023/01/19 22:24:07;;;;;;;13.53;10.70;;;;;;;3.80;63.74;99891.53;20916754;28;20192;-87
2023/01/19 22:34:09;;;;;;;14.30;10.67;;;;;;;3.77;63.24;99892.91;20950246;28;20223;-89
2023/01/19 22:44:19;;;;;;;17.73;11.80;;;;;;;3.62;63.68;99894.88;20968963;28;20204;-88
2023/01/19 22:54:22;;;;;;;19.23;13.00;;;;;;;3.64;63.70;99901.81;20990178;28;20215;-89
2023/01/19 23:04:24;;;;;;;16.63;11.93;;;;;;;3.88;62.96;99905.66;20953225;28;20250;-88
2023/01/19 23:14:28;;;;;;;20.00;11.57;;;;;;;4.41;61.96;99906.00;20966741;28;20219;-88
2023/01/19 23:24:30;;;;;;;21.87;12.77;;;;;;;2.80;67.69;99917.03;20974065;28;20196;-89
2023/01/19 23:34:32;;;;;;;20.40;13.37;;;;;;;3.36;65.67;99919.88;20920483;28;20620;-89
2023/01/19 23:44:34;;;;;;;23.27;13.67;;;;;;;3.46;65.67;99936.50;20937866;28;20192;-89
2023/01/19 23:54:37;;;;;;;29.43;16.00;;;;;;;3.82;64.28;99933.69;20937510;28;20369;-88
